Time;durP1;ratioP1;P1;durP2;ratioP2;P2;SDS_P1;SDS_P2;PMS_P1;PMS_P2;Temp;Humidity;BMP_temperature;BMP_pressure;BME280_temperature;BME280_humidity;BME280_pressure;Samples;Min_cycle;Max_cycle;Signal;HPM_P1;HPM_P2
2022/10/24 00:04:39;;;;;;;20.83;13.25;;;;;;;9.11;79.52;98356.56;10454298;28;20491;-54
2022/10/24 00:09:38;;;;;;;24.65;14.70;;;;;;;9.10;79.31;98354.84;10453388;28;20071;-54
2022/10/24 00:14:37;;;;;;;23.65;14.15;;;;;;;9.05;79.31;98336.63;10453814;28;20039;-54
2022/10/24 00:19:36;;;;;;;25.65;13.30;;;;;;;9.01;79.46;98331.41;10454505;28;20047;-54
2022/10/24 00:24:35;;;;;;;22.30;13.18;;;;;;;8.97;79.64;98327.88;10462767;28;20455;-54
2022/10/24 00:29:34;;;;;;;23.88;13.30;;;;;;;8.93;79.59;98329.56;10459961;28;20483;-53
2022/10/24 00:34:33;;;;;;;20.80;12.48;;;;;;;8.87;80.23;98329.47;10461987;28;20028;-53
2022/10/24 00:39:32;;;;;;;20.67;12.35;;;;;;;8.68;81.00;98340.38;10461585;28;20024;-54
2022/10/24 00:44:36;;;;;;;19.15;12.82;;;;;;;8.58;81.08;98328.16;10461167;28;20032;-54
2022/10/24 00:49:47;;;;;;;22.98;14.02;;;;;;;8.56;81.04;98333.31;10461367;28;20079;-55
2022/10/24 00:54:46;;;;;;;23.55;15.50;;;;;;;8.34;82.63;98334.69;10461195;28;20071;-54
2022/10/24 00:59:50;;;;;;;24.58;15.77;;;;;;;8.25;82.38;98337.97;10461666;28;20059;-54
2022/10/24 01:04:49;;;;;;;19.70;13.27;;;;;;;8.18;82.74;98343.00;10460110;28;20487;-54
2022/10/24 01:10:09;;;;;;;23.67;13.60;;;;;;;8.17;83.07;98341.25;10460583;28;20064;-54
2022/10/24 01:15:30;;;;;;;21.23;14.25;;;;;;;8.09;82.88;98341.97;10460054;28;20498;-54
2022/10/24 01:21:01;;;;;;;27.05;15.48;;;;;;;8.05;83.16;98334.16;10459683;28;20064;-54
2022/10/24 01:26:26;;;;;;;22.70;13.43;;;;;;;8.11;83.24;98342.03;10460427;28;20067;-53
2022/10/24 01:31:33;;;;;;;17.15;11.65;;;;;;;8.08;83.21;98342.84;10459081;28;20071;-53
2022/10/24 01:36:42;;;;;;;17.40;11.88;;;;;;;8.01;83.31;98325.47;10460347;28;20446;-54
2022/10/24 01:41:43;;;;;;;19.48;12.57;;;;;;;8.10;83.49;98335.09;10460748;28;20074;-54
2022/10/24 01:46:57;;;;;;;18.10;11.75;;;;;;;8.09;83.80;98333.38;10463104;28;20075;-54
2022/10/24 01:52:00;;;;;;;15.65;10.95;;;;;;;8.08;83.69;98327.31;10462738;28;20063;-55
2022/10/24 01:56:59;;;;;;;16.08;10.43;;;;;;;8.06;83.99;98316.09;10461947;28;20482;-54
2022/10/24 02:02:05;;;;;;;14.38;9.85;;;;;;;8.06;83.92;98312.59;10462205;28;20059;-55
2022/10/24 02:07:09;;;;;;;14.48;9.38;;;;;;;8.07;83.90;98310.06;10461362;28;20090;-54
2022/10/24 02:12:11;;;;;;;14.57;9.80;;;;;;;8.08;84.09;98316.09;10461313;28;20060;-54
2022/10/24 02:17:10;;;;;;;17.48;11.90;;;;;;;8.02;84.25;98303.94;10461310;28;20455;-55
2022/10/24 02:22:24;;;;;;;;;;;;;;;8.05;84.80;98300.53;10461393;28;20052;-54
2022/10/24 02:27:32;;;;;;;20.55;12.80;;;;;;;7.99;84.89;98316.81;10460397;28;19966;-54
2022/10/24 02:32:37;;;;;;;27.35;13.20;;;;;;;7.84;85.87;98317.38;10460603;28;20071;-54
2022/10/24 02:37:42;;;;;;;18.02;11.30;;;;;;;7.73;85.30;98318.03;10460274;28;20074;-54
2022/10/24 02:42:43;;;;;;;20.92;10.45;;;;;;;7.50;84.95;98320.16;10456742;28;20052;-54
2022/10/24 02:47:45;;;;;;;18.02;10.88;;;;;;;7.34;85.48;98324.13;10456765;28;20086;-53
2022/10/24 02:52:45;;;;;;;19.00;11.95;;;;;;;7.34;84.88;98321.53;10456347;28;20076;-54
2022/10/24 02:57:44;;;;;;;16.52;10.85;;;;;;;7.33;85.04;98318.06;10456091;28;20498;-53
2022/10/24 03:02:43;;;;;;;20.30;11.30;;;;;;;7.34;85.34;98318.97;10456285;28;20419;-54
2022/10/24 03:07:42;;;;;;;;;;;;;;;7.31;85.92;98322.34;10455988;28;20553;-54
2022/10/24 03:12:41;;;;;;;18.25;11.60;;;;;;;7.29;85.63;98310.22;10455509;28;20409;-53
2022/10/24 03:17:39;;;;;;;20.67;12.45;;;;;;;7.26;85.90;98300.69;10455395;28;20543;-54
2022/10/24 03:22:38;;;;;;;19.33;11.95;;;;;;;7.31;86.08;98301.69;10455300;28;20498;-54
2022/10/24 03:27:37;;;;;;;20.25;11.93;;;;;;;7.36;86.30;98306.94;10454807;28;20027;-54
2022/10/24 03:32:36;;;;;;;17.55;11.73;;;;;;;7.46;86.60;98311.50;10454763;28;20575;-54
2022/10/24 03:37:35;;;;;;;21.52;12.05;;;;;;;7.49;86.49;98303.78;10454722;28;20032;-54
2022/10/24 03:42:34;;;;;;;22.58;13.52;;;;;;;7.61;86.57;98313.50;10455171;28;20070;-54
2022/10/24 03:47:33;;;;;;;22.50;13.13;;;;;;;7.68;86.46;98304.16;10453993;28;20082;-54
2022/10/24 03:52:33;;;;;;;24.85;13.93;;;;;;;7.71;86.60;98311.97;10452546;28;20062;-54
2022/10/24 03:57:32;;;;;;;27.58;13.52;;;;;;;7.69;86.02;98300.75;10452687;28;20511;-54
2022/10/24 04:02:31;;;;;;;27.85;14.10;;;;;;;7.70;86.44;98307.66;10453820;28;20540;-54
2022/10/24 04:07:30;;;;;;;24.98;14.68;;;;;;;7.67;86.20;98300.72;10452253;28;20063;-54
2022/10/24 04:12:29;;;;;;;29.23;15.77;;;;;;;7.73;86.27;98302.53;10451939;28;20043;-54
2022/10/24 04:17:28;;;;;;;26.65;15.50;;;;;;;7.76;85.41;98295.72;10453147;28;20078;-55
2022/10/24 04:22:27;;;;;;;57.38;31.65;;;;;;;7.71;86.19;98305.09;10453453;28;20028;-56
2022/10/24 04:27:26;;;;;;;78.20;21.48;;;;;;;7.77;85.55;98304.34;10453442;28;20028;-56
2022/10/24 04:32:25;;;;;;;60.80;17.00;;;;;;;7.76;85.16;98297.44;10452976;28;20016;-56
2022/10/24 04:37:24;;;;;;;54.42;18.10;;;;;;;7.76;85.00;98307.78;10453454;28;20390;-54
2022/10/24 04:42:23;;;;;;;51.58;15.82;;;;;;;7.73;84.53;98299.94;10455519;28;20267;-54
2022/10/24 04:47:22;;;;;;;;;;;;;;;7.71;84.42;98304.19;10452941;28;20076;-54
2022/10/24 04:52:21;;;;;;;36.75;14.15;;;;;;;7.58;84.47;98296.22;10456645;28;19919;-54
2022/10/24 04:57:20;;;;;;;38.65;17.73;;;;;;;7.61;85.24;98314.34;10455805;28;20470;-54
2022/10/24 05:02:19;;;;;;;46.83;23.17;;;;;;;7.61;85.44;98313.50;10455712;28;20491;-54
2022/10/24 05:07:20;;;;;;;35.10;17.83;;;;;;;7.64;85.40;98322.19;10459531;28;20024;-53
2022/10/24 05:12:19;;;;;;;26.73;16.55;;;;;;;7.71;85.37;98319.72;10459846;28;20075;-53
2022/10/24 05:17:18;;;;;;;25.23;14.95;;;;;;;7.83;85.81;98320.81;10462584;28;20119;-54
2022/10/24 05:22:17;;;;;;;22.77;14.40;;;;;;;8.04;85.64;98322.06;10463368;28;20031;-54
2022/10/24 05:27:23;;;;;;;26.75;14.65;;;;;;;8.19;85.49;98318.88;10462804;28;20439;-54
2022/10/24 05:32:23;;;;;;;23.67;14.18;;;;;;;8.38;85.56;98317.47;10455737;28;20066;-53
2022/10/24 05:37:22;;;;;;;24.40;13.90;;;;;;;8.57;85.19;98321.22;10462546;28;20063;-54
2022/10/24 05:42:21;;;;;;;23.70;13.43;;;;;;;8.68;85.21;98319.69;10459720;28;20023;-54
2022/10/24 05:47:20;;;;;;;37.45;21.38;;;;;;;8.79;84.42;98323.31;10456521;28;20055;-54
2022/10/24 05:52:19;;;;;;;41.00;22.83;;;;;;;8.82;84.19;98310.41;10458037;28;20020;-54
2022/10/24 05:57:18;;;;;;;43.97;23.08;;;;;;;8.90;83.37;98321.78;10459166;28;20131;-53
2022/10/24 06:02:19;;;;;;;46.40;21.10;;;;;;;8.96;82.84;98326.16;10459190;28;20035;-54
2022/10/24 06:07:17;;;;;;;50.03;24.63;;;;;;;8.96;82.45;98325.28;10457218;28;20509;-54
2022/10/24 06:12:16;;;;;;;46.22;25.33;;;;;;;8.91;82.23;98332.97;10449949;28;20455;-53
2022/10/24 06:17:15;;;;;;;53.97;26.35;;;;;;;9.00;81.73;98329.66;10456637;28;20047;-54
2022/10/24 06:22:14;;;;;;;36.97;23.40;;;;;;;9.08;81.60;98330.63;10457706;28;20471;-54
2022/10/24 06:27:14;;;;;;;39.20;24.02;;;;;;;9.17;80.82;98330.75;10457645;28;20040;-54
2022/10/24 06:32:13;;;;;;;45.38;24.35;;;;;;;9.26;80.88;98338.66;10457306;28;20416;-54
2022/10/24 06:37:12;;;;;;;39.35;23.45;;;;;;;9.34;80.75;98350.00;10457380;28;20349;-53
2022/10/24 06:42:11;;;;;;;35.78;22.40;;;;;;;9.51;80.49;98339.91;10454786;28;20098;-53
2022/10/24 06:47:10;;;;;;;45.47;23.48;;;;;;;9.80;80.31;98361.84;10456400;28;20522;-54
2022/10/24 06:52:09;;;;;;;41.40;23.42;;;;;;;10.00;79.73;98357.72;10456242;28;20295;-54
2022/10/24 06:57:08;;;;;;;36.38;23.83;;;;;;;10.25;79.17;98360.59;10456676;28;20502;-54
2022/10/24 07:02:11;;;;;;;41.10;23.67;;;;;;;10.47;78.30;98348.66;10454878;28;20067;-54
2022/10/24 07:07:20;;;;;;;40.25;21.13;;;;;;;10.65;78.06;98347.97;10433900;28;20067;-54
2022/10/24 07:12:20;;;;;;;34.53;22.98;;;;;;;10.93;77.55;98349.09;10453333;28;20518;-53
2022/10/24 07:17:19;;;;;;;40.42;22.50;;;;;;;11.15;76.93;98344.88;10454065;28;20446;-53
2022/10/24 07:22:18;;;;;;;38.65;21.60;;;;;;;11.38;75.54;98329.44;10456685;28;20071;-53
2022/10/24 07:27:17;;;;;;;36.17;22.00;;;;;;;11.63;75.34;98330.41;10456729;28;20116;-54
2022/10/24 07:32:17;;;;;;;36.15;24.95;;;;;;;11.85;74.33;98327.03;10456665;28;20635;-54
2022/10/24 07:37:17;;;;;;;37.45;25.52;;;;;;;12.03;73.74;98317.53;10457122;28;20075;-54
2022/10/24 07:42:17;;;;;;;34.72;23.02;;;;;;;12.35;73.40;98321.97;10456430;28;20060;-54
2022/10/24 07:47:16;;;;;;;33.47;20.35;;;;;;;12.64;72.38;98321.97;10454548;28;20522;-54
2022/10/24 07:52:15;;;;;;;30.65;19.83;;;;;;;12.89;70.71;98315.03;10455720;28;20418;-54
2022/10/24 07:57:14;;;;;;;28.98;18.38;;;;;;;13.13;70.90;98304.53;10453454;28;20040;-54
2022/10/24 08:02:15;;;;;;;30.17;17.52;;;;;;;13.42;69.82;98308.81;10454039;28;20020;-53
2022/10/24 08:07:14;;;;;;;30.45;14.32;;;;;;;13.72;68.27;98299.16;10453869;28;20071;-53
2022/10/24 08:12:13;;;;;;;21.83;12.65;;;;;;;13.88;65.88;98292.13;10455929;28;20044;-54
2022/10/24 08:17:12;;;;;;;;;;;;;;;14.16;65.03;98285.84;10455114;28;20156;-54
2022/10/24 08:22:11;;;;;;;26.23;14.33;;;;;;;14.46;64.22;98283.88;10455516;28;20368;-55
2022/10/24 08:27:11;;;;;;;20.75;13.60;;;;;;;14.78;63.50;98288.88;10455187;28;20064;-54
2022/10/24 08:32:10;;;;;;;21.15;13.52;;;;;;;15.06;63.40;98278.16;10454814;28;20079;-56
2022/10/24 08:37:09;;;;;;;25.73;14.05;;;;;;;15.34;62.34;98272.59;10455007;28;20032;-56
2022/10/24 08:42:12;;;;;;;;;;;;;;;15.62;61.99;98271.38;10458628;28;20545;-56
2022/10/24 08:47:35;;;;;;;25.13;13.32;;;;;;;15.90;61.49;98263.16;10461611;28;19966;-56
2022/10/24 08:52:34;;;;;;;18.85;12.68;;;;;;;16.17;60.55;98251.44;10461606;28;20064;-55
2022/10/24 08:57:34;;;;;;;;;;;;;;;16.45;59.87;98249.22;10462251;28;20141;-55
2022/10/24 09:02:38;;;;;;;20.63;12.57;;;;;;;16.71;58.66;98242.66;10461244;28;19947;-55
2022/10/24 09:07:37;;;;;;;20.27;12.35;;;;;;;16.87;57.76;98241.53;10461658;28;20067;-54
2022/10/24 09:12:38;;;;;;;21.55;12.20;;;;;;;17.08;57.41;98228.91;10462580;28;20067;-54
2022/10/24 09:17:41;;;;;;;20.08;12.05;;;;;;;17.31;56.18;98224.06;10462283;28;20075;-54
2022/10/24 09:22:40;;;;;;;26.17;12.05;;;;;;;17.63;56.01;98208.53;10462191;28;20071;-54
2022/10/24 09:27:40;;;;;;;19.83;11.95;;;;;;;17.96;55.26;98209.53;10461373;28;20071;-54
2022/10/24 09:32:41;;;;;;;19.23;10.30;;;;;;;18.28;54.88;98202.66;10461575;28;20067;-54
2022/10/24 09:37:47;;;;;;;14.73;8.80;;;;;;;18.39;54.31;98206.75;10461529;28;20063;-54
2022/10/24 09:43:01;;;;;;;13.98;7.53;;;;;;;18.71;53.20;98196.31;10463589;28;20059;-54
2022/10/24 09:48:05;;;;;;;9.85;5.35;;;;;;;19.02;51.71;98196.38;10463923;28;20080;-54
2022/10/24 09:53:04;;;;;;;10.85;5.70;;;;;;;19.62;51.08;98202.53;10462576;28;20067;-54
2022/10/24 09:58:04;;;;;;;12.45;5.00;;;;;;;19.92;50.29;98189.34;10462988;28;20059;-54
2022/10/24 10:03:11;;;;;;;13.20;5.45;;;;;;;20.14;49.36;98179.84;10463581;28;20059;-54
2022/10/24 10:08:22;;;;;;;14.52;6.03;;;;;;;20.43;48.96;98175.41;10462788;28;20499;-55
2022/10/24 10:13:23;;;;;;;15.85;5.72;;;;;;;20.74;48.78;98171.69;10460818;28;20125;-55
2022/10/24 10:18:37;;;;;;;11.63;5.05;;;;;;;21.03;46.67;98167.97;10462453;28;20063;-55
2022/10/24 10:23:38;;;;;;;13.85;5.70;;;;;;;21.34;46.76;98155.41;10461965;28;20490;-54
2022/10/24 10:28:45;;;;;;;13.27;5.07;;;;;;;21.58;46.12;98146.59;10461361;28;20475;-54
2022/10/24 10:33:55;;;;;;;12.05;5.70;;;;;;;21.81;45.25;98143.91;10462329;28;20495;-54
2022/10/24 10:39:06;;;;;;;20.98;6.57;;;;;;;22.12;44.22;98153.25;10462201;28;20451;-54
2022/10/24 10:44:42;;;;;;;19.48;5.88;;;;;;;22.44;42.69;98132.53;10459549;28;20056;-54
2022/10/24 10:49:41;;;;;;;13.02;5.60;;;;;;;22.77;41.85;98130.22;10459015;28;20084;-54
2022/10/24 10:54:52;;;;;;;18.67;5.22;;;;;;;22.89;41.56;98128.81;10457975;28;20032;-55
2022/10/24 11:00:06;;;;;;;13.32;5.55;;;;;;;22.97;41.01;98124.88;10458106;28;20881;-54
2022/10/24 11:05:31;;;;;;;17.42;5.13;;;;;;;23.22;40.26;98111.38;10457717;28;20067;-54
2022/10/24 11:10:40;;;;;;;13.00;4.82;;;;;;;23.31;39.70;98110.09;10457941;28;20067;-54
2022/10/24 11:15:45;;;;;;;15.48;5.63;;;;;;;23.47;38.37;98110.28;10457468;28;20455;-55
2022/10/24 11:20:52;;;;;;;16.38;5.18;;;;;;;23.82;38.31;98099.75;10457591;28;20063;-55
2022/10/24 11:25:57;;;;;;;13.88;6.03;;;;;;;24.05;38.18;98102.13;10457444;28;20067;-54
2022/10/24 11:31:11;;;;;;;13.18;4.68;;;;;;;24.11;37.66;98093.00;10457848;28;20463;-54
2022/10/24 11:36:16;;;;;;;13.07;5.30;;;;;;;24.12;37.56;98091.19;10457923;28;20462;-55
2022/10/24 11:41:26;;;;;;;14.40;5.00;;;;;;;24.19;37.48;98074.94;10456966;28;20063;-55
2022/10/24 11:46:33;;;;;;;19.60;5.65;;;;;;;24.29;37.25;98072.69;10456832;28;20094;-55
2022/10/24 11:51:39;;;;;;;17.13;5.32;;;;;;;24.44;37.36;98071.88;10456710;28;20091;-54
2022/10/24 11:57:03;;;;;;;16.10;6.10;;;;;;;24.56;37.20;98064.19;10456680;28;20078;-55
2022/10/24 12:02:37;;;;;;;22.10;6.38;;;;;;;24.65;37.50;98053.09;10456944;28;20115;-55
2022/10/24 12:08:02;;;;;;;12.68;5.38;;;;;;;24.72;36.94;98041.22;10415344;28;20087;-55
2022/10/24 12:13:30;;;;;;;16.10;5.28;;;;;;;24.82;36.73;98044.22;10415088;28;20064;-55
2022/10/24 12:18:42;;;;;;;21.70;11.43;;;;;;;24.94;36.39;98035.63;10411728;28;20063;-55
2022/10/24 12:23:51;;;;;;;17.25;6.32;;;;;;;25.02;36.43;98035.22;10410619;28;20068;-55
2022/10/24 12:29:00;;;;;;;;;;;;;;;24.99;36.00;98030.06;10411065;28;20529;-55
2022/10/24 12:34:14;;;;;;;13.48;5.15;;;;;;;24.97;36.02;98026.66;10408243;28;20791;-55
2022/10/24 12:39:29;;;;;;;13.60;5.65;;;;;;;24.94;35.62;98024.16;10404780;28;20071;-55
2022/10/24 12:44:30;;;;;;;18.80;5.40;;;;;;;24.91;35.86;98027.84;10411110;28;20056;-55
2022/10/24 12:49:32;;;;;;;17.02;5.45;;;;;;;24.82;35.94;98023.00;10411623;28;20111;-55
2022/10/24 12:54:41;;;;;;;16.58;4.95;;;;;;;24.75;36.04;98021.63;10411748;28;20500;-55
2022/10/24 12:59:45;;;;;;;19.77;8.68;;;;;;;24.80;36.38;98015.13;10411946;28;20079;-55
2022/10/24 13:05:02;;;;;;;19.55;5.82;;;;;;;24.92;36.16;98016.28;10412013;28;20052;-55
2022/10/24 13:10:36;;;;;;;20.52;12.57;;;;;;;25.02;35.94;98008.66;10411542;28;20361;-54
2022/10/24 13:15:52;;;;;;;16.38;5.43;;;;;;;25.09;35.70;98008.22;10400323;28;20150;-55
2022/10/24 13:21:12;;;;;;;17.42;5.95;;;;;;;25.07;35.76;98007.44;10411563;28;20052;-55
2022/10/24 13:26:35;;;;;;;17.80;5.78;;;;;;;25.15;35.79;98011.47;10410674;28;20071;-55
2022/10/24 13:31:34;;;;;;;16.67;5.53;;;;;;;25.13;36.02;98011.59;10416737;28;20083;-55
2022/10/24 13:36:33;;;;;;;16.33;5.90;;;;;;;25.10;35.83;98001.97;10417464;28;20025;-55
2022/10/24 13:41:48;;;;;;;20.52;8.00;;;;;;;25.16;35.57;98000.78;10417356;28;20418;-55
2022/10/24 13:46:58;;;;;;;11.13;4.25;;;;;;;25.09;34.98;97999.41;10417041;28;20071;-56
2022/10/24 13:52:06;;;;;;;21.08;5.57;;;;;;;25.12;34.85;97991.25;10417031;28;20064;-55
2022/10/24 13:57:22;;;;;;;30.85;12.48;;;;;;;25.11;34.84;97986.91;10417050;28;20056;-55
2022/10/24 14:02:24;;;;;;;23.50;6.22;;;;;;;25.01;35.02;97994.53;10416732;28;20052;-55
2022/10/24 14:07:29;;;;;;;15.13;4.40;;;;;;;25.02;34.64;97987.44;10416088;28;20067;-55
2022/10/24 14:12:31;;;;;;;17.38;5.40;;;;;;;25.02;34.66;97979.47;10416356;28;20412;-55
2022/10/24 14:17:35;;;;;;;15.93;5.05;;;;;;;25.04;34.75;97980.22;10414655;28;20533;-55
2022/10/24 14:22:40;;;;;;;21.75;6.32;;;;;;;24.99;35.88;97977.84;10415496;28;20356;-55
2022/10/24 14:27:40;;;;;;;21.17;7.75;;;;;;;24.83;35.90;97979.59;10415256;28;20056;-55
2022/10/24 14:32:39;;;;;;;27.80;8.73;;;;;;;24.67;36.82;97979.56;10415101;28;20059;-55
2022/10/24 14:37:39;;;;;;;37.50;12.15;;;;;;;24.43;37.78;97982.63;10414903;28;20066;-55
2022/10/24 14:42:38;;;;;;;35.42;10.63;;;;;;;24.20;38.24;97985.63;10416394;28;20052;-55
2022/10/24 14:47:49;;;;;;;28.73;9.82;;;;;;;23.94;39.35;97979.88;10417633;28;20494;-55
2022/10/24 14:52:48;;;;;;;34.35;12.45;;;;;;;23.66;40.27;97988.38;10414357;28;20067;-55
2022/10/24 14:57:50;;;;;;;34.38;13.82;;;;;;;23.27;40.89;97992.00;10412843;28;20039;-55
2022/10/24 15:02:52;;;;;;;44.80;21.30;;;;;;;22.93;41.53;97988.34;10414797;28;20048;-55
2022/10/24 15:07:53;;;;;;;40.10;14.82;;;;;;;22.65;41.72;97990.53;10417319;28;20063;-55
2022/10/24 15:12:55;;;;;;;36.75;11.77;;;;;;;22.35;42.59;97997.16;10416380;28;20064;-55
2022/10/24 15:18:18;;;;;;;27.63;9.10;;;;;;;22.03;42.88;98000.34;10416229;28;20068;-55
2022/10/24 15:23:26;;;;;;;22.48;8.95;;;;;;;21.68;43.81;98005.31;10416024;28;20067;-54
2022/10/24 15:28:37;;;;;;;29.53;10.90;;;;;;;21.39;44.38;98006.53;10416732;28;20060;-55
2022/10/24 15:33:36;;;;;;;32.60;11.02;;;;;;;21.10;45.35;98004.13;10416626;28;20052;-55
2022/10/24 15:38:35;;;;;;;31.02;12.32;;;;;;;20.78;46.39;98008.00;10415833;28;20526;-55
2022/10/24 15:43:34;;;;;;;27.40;13.13;;;;;;;20.36;46.86;97992.84;10413183;28;20024;-54
2022/10/24 15:48:33;;;;;;;32.50;11.68;;;;;;;20.19;47.46;98014.53;10412219;28;20079;-55
2022/10/24 15:53:32;;;;;;;33.65;12.55;;;;;;;19.92;48.07;98015.50;10412298;28;20024;-54
2022/10/24 15:58:31;;;;;;;29.08;13.43;;;;;;;19.70;48.58;98026.78;10412345;28;20024;-55
2022/10/24 16:03:31;;;;;;;28.45;11.48;;;;;;;19.47;49.34;98024.84;10412116;28;20472;-55
2022/10/24 16:08:30;;;;;;;23.98;11.07;;;;;;;19.21;50.24;98029.19;10427372;28;20072;-55
2022/10/24 16:13:29;;;;;;;28.23;11.52;;;;;;;19.02;50.43;98034.16;10412237;28;20059;-55
2022/10/24 16:18:28;;;;;;;29.08;12.50;;;;;;;18.82;51.16;98029.47;10412080;28;20029;-54
2022/10/24 16:23:27;;;;;;;33.50;12.02;;;;;;;18.61;51.65;98032.72;10411720;28;20020;-55
2022/10/24 16:28:27;;;;;;;43.67;21.77;;;;;;;18.38;52.44;98036.00;10412295;28;20016;-55
2022/10/24 16:33:26;;;;;;;34.42;15.95;;;;;;;18.16;52.80;98041.84;10411644;28;20503;-55
2022/10/24 16:38:25;;;;;;;28.42;14.13;;;;;;;17.98;53.42;98029.19;10411612;28;20091;-55
2022/10/24 16:43:24;;;;;;;32.08;15.80;;;;;;;17.87;53.67;98033.84;10411221;28;20376;-55
2022/10/24 16:48:23;;;;;;;;;;;;;;;17.68;54.47;98041.31;10411323;28;20037;-53
2022/10/24 16:53:22;;;;;;;30.20;13.73;;;;;;;17.48;55.15;98032.19;10411316;28;19983;-54
2022/10/24 16:58:21;;;;;;;32.63;14.95;;;;;;;17.33;55.82;98049.16;10410042;28;20055;-55
2022/10/24 17:03:20;;;;;;;29.20;13.25;;;;;;;17.24;55.98;98041.50;10414572;28;20056;-54
2022/10/24 17:08:19;;;;;;;26.38;12.57;;;;;;;17.17;56.04;98042.53;10418572;28;20066;-54
2022/10/24 17:13:19;;;;;;;;;;;;;;;17.04;56.63;98046.31;10417268;28;20044;-55
2022/10/24 17:18:21;;;;;;;42.27;23.10;;;;;;;16.95;56.77;98041.28;10418330;28;19962;-53
2022/10/24 17:23:21;;;;;;;30.20;15.70;;;;;;;16.81;57.78;98036.34;10418452;28;20454;-54
2022/10/24 17:28:20;;;;;;;30.67;16.95;;;;;;;16.73;58.38;98036.47;10417676;28;20082;-53
2022/10/24 17:33:20;;;;;;;41.83;22.30;;;;;;;16.59;59.23;98043.78;10416069;28;20076;-54
2022/10/24 17:38:36;;;;;;;60.63;31.30;;;;;;;16.37;61.09;98038.97;10417819;28;20499;-54
2022/10/24 17:43:35;;;;;;;50.85;25.38;;;;;;;16.27;61.06;98043.50;10420236;28;20484;-54
2022/10/24 17:48:34;;;;;;;;;;;;;;;16.16;61.40;98047.22;10420689;28;20076;-54
2022/10/24 17:53:33;;;;;;;46.23;26.10;;;;;;;16.03;62.07;98049.22;10420577;28;19986;-53
2022/10/24 17:58:32;;;;;;;;;;;;;;;15.89;62.81;98038.97;10420070;28;20590;-54
2022/10/24 18:03:32;;;;;;;57.23;34.37;;;;;;;15.65;63.87;98038.50;10418904;28;19944;-54
2022/10/24 18:08:31;;;;;;;54.15;34.42;;;;;;;15.48;64.88;98034.41;10415892;28;20467;-54
2022/10/24 18:13:31;;;;;;;49.22;32.58;;;;;;;15.40;64.96;98034.53;10415617;28;20064;-54
2022/10/24 18:18:30;;;;;;;65.63;38.22;;;;;;;15.24;65.52;98026.94;10417548;28;20055;-54
2022/10/24 18:23:29;;;;;;;;;;;;;;;15.15;66.00;98032.28;10420571;28;20035;-54
2022/10/24 18:28:28;;;;;;;68.32;36.95;;;;;;;14.98;67.44;98029.06;10419281;28;20373;-54
2022/10/24 18:33:27;;;;;;;;;;;;;;;14.91;67.51;98033.50;10419845;28;20032;-54
2022/10/24 18:38:25;;;;;;;47.72;26.25;;;;;;;14.81;67.98;98026.69;10419072;28;19948;-54
2022/10/24 18:43:24;;;;;;;53.17;28.90;;;;;;;14.70;68.75;98029.44;10416046;28;20025;-54
2022/10/24 18:48:23;;;;;;;;;;;;;;;14.62;68.98;98029.53;10416177;28;20084;-54
2022/10/24 18:53:26;;;;;;;53.67;30.27;;;;;;;14.53;69.34;98027.03;10414602;28;19912;-54
2022/10/24 18:58:25;;;;;;;40.92;24.58;;;;;;;14.40;70.48;98030.66;10414806;28;20526;-54
2022/10/24 19:03:32;;;;;;;;;;;;;;;14.29;70.79;98036.03;10415402;28;20510;-54
2022/10/24 19:08:31;;;;;;;46.67;28.35;;;;;;;14.02;72.76;98033.72;10414637;28;20343;-54
2022/10/24 19:13:30;;;;;;;53.63;30.98;;;;;;;13.93;73.38;98039.88;10413964;28;20064;-54
2022/10/24 19:18:31;;;;;;;52.33;32.30;;;;;;;13.90;73.42;98037.31;10414285;28;20063;-54
2022/10/24 19:23:31;;;;;;;59.95;39.45;;;;;;;13.80;73.24;98022.59;10413469;28;20459;-54
2022/10/24 19:28:29;;;;;;;;;;;;;;;13.70;73.90;98035.75;10413696;28;20055;-54
2022/10/24 19:33:29;;;;;;;74.07;46.85;;;;;;;13.54;74.38;98027.19;10413860;28;19923;-54
2022/10/24 19:38:28;;;;;;;69.82;40.47;;;;;;;13.50;74.39;98038.50;10413432;28;20488;-54
2022/10/24 19:43:30;;;;;;;60.03;38.45;;;;;;;13.34;75.04;98039.47;10412847;28;20492;-53
2022/10/24 19:48:36;;;;;;;63.13;36.78;;;;;;;13.32;74.78;98042.09;10413319;28;20103;-53
2022/10/24 19:53:40;;;;;;;48.03;29.17;;;;;;;13.26;74.98;98042.16;10412699;28;20123;-54
2022/10/24 19:58:41;;;;;;;46.05;26.33;;;;;;;13.21;75.33;98040.44;10413117;28;20577;-54
2022/10/24 20:03:42;;;;;;;44.88;25.58;;;;;;;13.12;75.45;98044.84;10411016;28;20068;-54
2022/10/24 20:08:41;;;;;;;40.28;23.98;;;;;;;13.02;76.29;98030.13;10371375;28;20862;-54
2022/10/24 20:13:41;;;;;;;37.30;23.88;;;;;;;13.01;76.28;98036.22;10372338;28;20071;-53
2022/10/24 20:18:42;;;;;;;39.97;22.48;;;;;;;12.94;76.63;98042.34;10387059;28;20068;-54
2022/10/24 20:23:40;;;;;;;42.05;24.52;;;;;;;12.91;77.20;98050.19;10371466;28;20059;-54
2022/10/24 20:28:43;;;;;;;45.72;23.98;;;;;;;12.87;77.17;98053.69;10386741;28;20033;-56
2022/10/24 20:33:42;;;;;;;40.40;25.00;;;;;;;12.70;78.72;98052.03;10371809;28;20072;-53
2022/10/24 20:38:41;;;;;;;41.15;20.40;;;;;;;12.65;78.18;98046.00;10375339;28;20462;-55
2022/10/24 20:43:40;;;;;;;41.67;20.42;;;;;;;12.58;78.27;98039.09;10379191;28;20487;-54
2022/10/24 20:48:39;;;;;;;55.17;22.42;;;;;;;12.42;78.63;98030.47;10379629;28;20053;-54
2022/10/24 20:53:39;;;;;;;55.50;22.30;;;;;;;12.38;78.69;98033.09;10397856;28;20046;-54
2022/10/24 20:58:40;;;;;;;46.10;22.50;;;;;;;12.29;79.12;98032.22;10420340;28;20068;-53
2022/10/24 21:03:39;;;;;;;47.22;19.58;;;;;;;12.19;79.34;98033.09;10420087;28;20067;-54
2022/10/24 21:08:38;;;;;;;;;;;;;;;12.14;79.56;98039.22;10419792;28;20075;-54
2022/10/24 21:13:37;;;;;;;37.88;16.35;;;;;;;12.01;80.25;98028.81;10419703;28;19956;-54
2022/10/24 21:18:36;;;;;;;42.08;21.08;;;;;;;11.95;80.17;98043.59;10419228;28;20078;-54
2022/10/24 21:23:35;;;;;;;39.78;22.45;;;;;;;11.88;80.08;98043.59;10418993;28;20070;-54
2022/10/24 21:28:35;;;;;;;47.08;24.33;;;;;;;11.81;81.05;98036.66;10418969;28;20032;-54
2022/10/24 21:33:34;;;;;;;47.45;28.60;;;;;;;11.68;81.55;98040.13;10418551;28;20060;-54
2022/10/24 21:38:34;;;;;;;46.65;29.48;;;;;;;11.57;81.67;98023.69;10418055;28;20068;-54
2022/10/24 21:43:35;;;;;;;50.95;29.02;;;;;;;11.46;81.69;98024.56;10418470;28;20467;-54
2022/10/24 21:48:35;;;;;;;43.00;25.77;;;;;;;11.46;81.65;98034.97;10417503;28;20080;-53
2022/10/24 21:53:45;;;;;;;47.17;24.95;;;;;;;11.37;82.68;98024.56;10418075;28;20060;-54
2022/10/24 21:58:53;;;;;;;42.22;24.23;;;;;;;11.42;82.78;98034.94;10417506;28;20093;-53
2022/10/24 22:03:53;;;;;;;38.55;23.92;;;;;;;11.31;83.31;98021.09;10416925;28;20056;-53
2022/10/24 22:08:54;;;;;;;40.08;23.10;;;;;;;11.30;83.17;98025.44;10417275;28;20447;-53
2022/10/24 22:13:53;;;;;;;43.88;23.23;;;;;;;11.25;84.00;98034.94;10417118;28;20073;-54
2022/10/24 22:18:53;;;;;;;45.63;23.10;;;;;;;11.20;84.47;98016.75;10414201;28;20123;-54
2022/10/24 22:24:02;;;;;;;36.95;21.63;;;;;;;11.13;85.17;98016.78;10413086;28;20056;-54
2022/10/24 22:29:01;;;;;;;40.03;20.70;;;;;;;11.01;85.12;98017.59;10413412;28;20071;-53
2022/10/24 22:34:01;;;;;;;40.00;23.25;;;;;;;10.96;86.08;98017.63;10415194;28;20060;-54
2022/10/24 22:39:00;;;;;;;37.03;20.38;;;;;;;10.89;86.18;98009.78;10415796;28;20075;-53
2022/10/24 22:43:59;;;;;;;35.85;19.33;;;;;;;10.89;85.60;98004.59;10419007;28;20024;-54
2022/10/24 22:49:07;;;;;;;32.60;16.25;;;;;;;10.80;85.75;98000.25;10418682;28;20072;-54
2022/10/24 22:54:14;;;;;;;30.92;15.98;;;;;;;10.78;85.50;98004.56;10406817;28;20503;-54
2022/10/24 22:59:13;;;;;;;34.75;16.73;;;;;;;10.69;86.30;97986.38;10417982;28;20064;-54
2022/10/24 23:04:15;;;;;;;;;;;;;;;10.56;86.59;98004.47;10418984;28;20059;-54
2022/10/24 23:09:14;;;;;;;29.15;15.27;;;;;;;10.44;87.20;97996.66;10417839;28;19958;-53
2022/10/24 23:14:13;;;;;;;29.05;15.43;;;;;;;10.43;87.40;97997.53;10418045;28;20029;-53
2022/10/24 23:19:16;;;;;;;;;;;;;;;10.37;87.31;98000.09;10418158;28;20067;-54